Time;durP1;ratioP1;P1;durP2;ratioP2;P2;SDS_P1;SDS_P2;PMS_P1;PMS_P2;Temp;Humidity;BMP_temperature;BMP_pressure;BME280_temperature;BME280_humidity;BME280_pressure;Samples;Min_cycle;Max_cycle;Signal;HPM_P1;HPM_P2
2022/04/04 00:01:19;;;;;;;11.33;9.33;;;;;;;4.25;52.38;97824.84;5136054;27;20648;-69
2022/04/04 00:03:44;;;;;;;15.27;9.50;;;;;;;4.24;52.05;97828.38;5140284;27;20212;-70
2022/04/04 00:06:10;;;;;;;14.27;10.13;;;;;;;4.23;52.54;97832.72;5129755;27;20291;-69
2022/04/04 00:08:35;;;;;;;14.10;10.60;;;;;;;4.24;52.06;97836.97;5127456;27;20284;-71
2022/04/04 00:11:01;;;;;;;12.27;9.37;;;;;;;4.22;52.70;97820.66;5132868;27;20180;-70
2022/04/04 00:13:27;;;;;;;14.83;9.57;;;;;;;4.22;52.54;97827.63;5129798;27;20188;-70
2022/04/04 00:15:54;;;;;;;12.50;10.17;;;;;;;4.24;52.26;97830.97;5120057;27;20443;-69
2022/04/04 00:18:19;;;;;;;12.20;8.90;;;;;;;4.18;52.13;97839.97;5139416;27;20418;-71
2022/04/04 00:20:44;;;;;;;24.73;10.47;;;;;;;4.21;51.91;97823.38;5143666;27;20795;-69
2022/04/04 00:23:13;;;;;;;15.07;9.27;;;;;;;4.21;51.93;97825.97;5134521;27;20200;-69
2022/04/04 00:25:43;;;;;;;11.87;9.00;;;;;;;4.14;52.09;97826.38;5121772;27;20211;-70
2022/04/04 00:28:09;;;;;;;12.90;9.27;;;;;;;4.15;51.97;97825.44;5128866;27;20948;-70
2022/04/04 00:30:35;;;;;;;16.63;9.50;;;;;;;4.19;51.74;97810.50;5113127;27;20427;-68
2022/04/04 00:33:00;;;;;;;14.70;10.30;;;;;;;4.16;51.93;97815.88;5127337;27;20669;-69
2022/04/04 00:35:26;;;;;;;12.20;9.50;;;;;;;4.13;52.03;97811.72;5130469;27;20479;-69
2022/04/04 00:37:52;;;;;;;13.03;9.77;;;;;;;4.12;52.14;97814.38;5112046;28;20195;-69
2022/04/04 00:40:18;;;;;;;12.07;9.40;;;;;;;4.10;51.85;97822.28;5127995;27;20207;-68
2022/04/04 00:42:43;;;;;;;13.30;10.00;;;;;;;4.02;51.86;97824.53;5112523;28;20529;-69
2022/04/04 00:45:09;;;;;;;17.40;8.63;;;;;;;4.04;52.00;97819.25;5116516;27;20267;-69
2022/04/04 00:47:34;;;;;;;14.33;9.33;;;;;;;4.05;52.20;97818.31;5120805;27;20574;-69
2022/04/04 00:50:00;;;;;;;15.50;9.13;;;;;;;4.02;52.25;97828.88;5120850;27;20172;-69
2022/04/04 00:52:26;;;;;;;11.67;9.50;;;;;;;4.03;52.27;97818.44;5145127;27;20200;-69
2022/04/04 00:54:51;;;;;;;16.33;10.03;;;;;;;4.04;51.71;97816.66;5120748;27;20419;-69
2022/04/04 00:57:17;;;;;;;11.80;9.30;;;;;;;4.02;51.51;97815.91;5120477;27;20569;-70
2022/04/04 00:59:43;;;;;;;13.53;9.70;;;;;;;3.99;52.18;97824.72;5116526;27;20204;-69
2022/04/04 01:02:09;;;;;;;11.70;9.13;;;;;;;4.01;51.80;97812.50;5124146;27;20207;-69
2022/04/04 01:04:34;;;;;;;11.90;9.70;;;;;;;4.00;52.05;97808.22;5121246;27;20430;-70
2022/04/04 01:07:01;;;;;;;18.63;9.67;;;;;;;3.90;51.76;97809.75;5118346;27;20672;-70
2022/04/04 01:09:26;;;;;;;13.83;9.17;;;;;;;3.93;51.76;97806.94;5123441;27;20218;-69
2022/04/04 01:12:08;;;;;;;12.00;9.07;;;;;;;3.95;52.01;97818.91;5127818;27;20423;-67
2022/04/04 01:14:48;;;;;;;16.80;9.40;;;;;;;3.92;51.69;97813.03;5120591;27;20180;-70
2022/04/04 01:17:18;;;;;;;14.47;9.67;;;;;;;3.88;51.50;97809.00;5132233;27;20429;-70
2022/04/04 01:19:45;;;;;;;12.60;9.77;;;;;;;3.90;51.82;97814.94;5128238;27;20415;-70
2022/04/04 01:22:12;;;;;;;11.93;9.33;;;;;;;3.88;51.48;97811.59;5127862;27;20514;-70
2022/04/04 01:24:38;;;;;;;13.00;9.10;;;;;;;3.87;51.64;97807.31;5120076;27;20858;-70
2022/04/04 01:27:05;;;;;;;11.70;9.00;;;;;;;3.79;51.54;97813.81;5117842;27;20661;-69
2022/04/04 01:29:30;;;;;;;11.20;8.57;;;;;;;3.80;51.96;97805.09;5123357;27;20469;-68
2022/04/04 01:31:56;;;;;;;12.40;9.03;;;;;;;3.82;51.62;97803.25;5126745;27;20411;-68
2022/04/04 01:34:22;;;;;;;11.70;9.10;;;;;;;3.80;51.93;97810.28;5119264;27;20180;-69
2022/04/04 01:36:48;;;;;;;14.03;9.20;;;;;;;3.79;51.94;97797.44;5116344;27;20202;-69
2022/04/04 01:39:14;;;;;;;12.43;8.73;;;;;;;3.80;51.53;97788.72;5123646;27;20504;-70
2022/04/04 01:41:40;;;;;;;10.80;8.30;;;;;;;3.82;51.56;97792.06;5122792;27;20556;-69
2022/04/04 01:44:06;;;;;;;13.20;8.87;;;;;;;3.74;51.51;97783.91;5121054;27;20207;-70
2022/04/04 01:46:31;;;;;;;10.90;9.10;;;;;;;3.76;51.40;97780.31;5129810;27;20204;-69
2022/04/04 01:48:59;;;;;;;12.80;8.80;;;;;;;3.74;51.75;97771.78;5125385;27;20176;-69
2022/04/04 01:51:26;;;;;;;13.30;9.67;;;;;;;3.71;52.23;97774.56;5131770;27;20183;-69
2022/04/04 01:53:51;;;;;;;12.53;8.97;;;;;;;3.73;51.55;97777.91;5118453;27;20778;-69
2022/04/04 01:56:17;;;;;;;10.50;9.20;;;;;;;3.72;51.76;97780.59;5124983;27;20444;-69
2022/04/04 01:58:43;;;;;;;12.10;8.60;;;;;;;3.73;52.02;97777.06;5127413;27;20189;-69
2022/04/04 02:01:13;;;;;;;14.00;8.67;;;;;;;3.70;51.48;97772.91;5111159;28;20201;-69
2022/04/04 02:03:39;;;;;;;11.37;8.83;;;;;;;3.69;51.45;97781.59;5119576;28;20184;-70
2022/04/04 02:06:05;;;;;;;12.33;9.07;;;;;;;3.69;51.21;97771.22;5111448;28;20963;-70
2022/04/04 02:08:31;;;;;;;11.43;8.03;;;;;;;3.69;51.86;97773.81;5119532;28;20508;-69
2022/04/04 02:10:57;;;;;;;11.03;8.40;;;;;;;3.63;51.68;97776.81;5107125;28;20219;-70
2022/04/04 02:13:25;;;;;;;12.40;8.30;;;;;;;3.64;51.70;97773.28;5129353;28;20425;-70
2022/04/04 02:15:54;;;;;;;12.40;8.73;;;;;;;3.66;52.14;97772.25;5110978;28;20443;-70
2022/04/04 02:18:20;;;;;;;12.23;9.43;;;;;;;3.66;51.87;97761.03;5119337;28;20757;-71
2022/04/04 02:20:46;;;;;;;12.13;8.87;;;;;;;3.67;51.71;97755.78;5123568;28;20424;-69
2022/04/04 02:23:12;;;;;;;10.67;8.70;;;;;;;3.68;51.39;97754.00;5131919;27;20177;-70
2022/04/04 02:25:37;;;;;;;13.03;9.00;;;;;;;3.67;51.47;97741.97;5123190;27;20964;-67
2022/04/04 02:28:03;;;;;;;10.73;8.33;;;;;;;3.68;51.04;97754.00;5129777;27;20191;-69
2022/04/04 02:30:29;;;;;;;11.33;8.03;;;;;;;3.65;51.20;97743.84;5117652;27;20243;-68
2022/04/04 02:32:54;;;;;;;14.57;9.07;;;;;;;3.63;51.25;97743.94;5122507;28;20433;-70
2022/04/04 02:35:19;;;;;;;11.80;8.80;;;;;;;3.61;51.31;97747.56;5115644;28;20178;-69
2022/04/04 02:37:45;;;;;;;12.27;8.90;;;;;;;3.60;51.52;97748.47;5114110;28;20574;-70
2022/04/04 02:40:11;;;;;;;13.90;8.90;;;;;;;3.54;51.10;97750.50;5116527;28;20184;-69
2022/04/04 02:42:36;;;;;;;11.10;8.30;;;;;;;3.51;51.47;97750.72;5115497;28;20201;-69
2022/04/04 02:45:02;;;;;;;10.50;8.43;;;;;;;3.49;50.94;97744.78;5119879;27;20185;-69
2022/04/04 02:47:28;;;;;;;20.30;8.63;;;;;;;3.48;51.78;97743.13;5123505;27;20204;-69
2022/04/04 02:49:53;;;;;;;13.80;8.97;;;;;;;3.47;50.98;97744.06;5120575;27;20186;-69
2022/04/04 02:52:19;;;;;;;11.53;8.30;;;;;;;3.44;51.46;97744.22;5126647;27;20678;-70
2022/04/04 02:54:44;;;;;;;12.10;8.70;;;;;;;3.44;51.37;97740.81;5123622;27;20173;-70
2022/04/04 02:57:09;;;;;;;11.47;8.40;;;;;;;3.42;51.08;97751.25;5131258;27;20712;-69
2022/04/04 02:59:35;;;;;;;10.93;8.17;;;;;;;3.43;51.24;97750.34;5123169;27;22203;-69
2022/04/04 03:02:00;;;;;;;12.27;8.53;;;;;;;3.44;51.41;97744.22;5123652;27;20205;-70
2022/04/04 03:04:26;;;;;;;11.97;8.77;;;;;;;3.46;51.51;97739.78;5104593;27;20248;-70
2022/04/04 03:06:51;;;;;;;10.13;8.50;;;;;;;3.42;50.91;97733.13;5112357;28;20208;-70
2022/04/04 03:09:17;;;;;;;11.93;7.97;;;;;;;3.39;50.71;97738.50;5123011;27;20186;-70
2022/04/04 03:11:42;;;;;;;10.33;7.80;;;;;;;3.42;51.04;97737.50;5114055;28;20225;-70
2022/04/04 03:14:08;;;;;;;10.67;8.50;;;;;;;3.41;50.85;97741.00;5115469;28;20633;-70
2022/04/04 03:16:33;;;;;;;11.63;8.60;;;;;;;3.35;50.79;97730.06;5114848;28;20197;-69
2022/04/04 03:18:59;;;;;;;14.80;9.30;;;;;;;3.32;50.32;97732.88;5115074;28;20181;-70
2022/04/04 03:21:27;;;;;;;11.67;8.23;;;;;;;3.31;50.30;97732.94;5114396;28;20229;-69
2022/04/04 03:23:53;;;;;;;13.80;8.07;;;;;;;3.28;50.09;97735.72;5115150;27;20177;-69
2022/04/04 03:26:18;;;;;;;13.87;8.17;;;;;;;3.26;49.40;97735.00;5114903;28;21042;-69
2022/04/04 03:28:45;;;;;;;13.67;9.17;;;;;;;3.18;50.42;97738.88;5114548;28;20426;-68
2022/04/04 03:31:11;;;;;;;12.50;8.50;;;;;;;3.21;50.60;97730.94;5115025;27;20237;-68
2022/04/04 03:33:37;;;;;;;16.87;9.20;;;;;;;3.25;50.13;97735.94;5114691;28;20436;-69
2022/04/04 03:36:03;;;;;;;14.27;9.60;;;;;;;3.23;50.72;97736.00;5116250;27;20208;-69
2022/04/04 03:38:29;;;;;;;13.63;10.10;;;;;;;3.20;50.02;97737.03;5147363;27;20901;-68
2022/04/04 03:40:55;;;;;;;12.53;8.60;;;;;;;3.21;50.40;97737.88;5113716;28;20630;-70
2022/04/04 03:43:21;;;;;;;13.27;9.27;;;;;;;3.13;50.45;97727.97;5096376;28;21108;-68
2022/04/04 03:45:46;;;;;;;12.97;8.60;;;;;;;3.15;50.49;97722.69;5116676;27;20578;-70
2022/04/04 03:48:12;;;;;;;13.30;8.60;;;;;;;3.22;50.01;97729.16;5115089;28;20423;-70
2022/04/04 03:50:38;;;;;;;11.53;8.83;;;;;;;3.12;50.25;97731.50;5095361;28;20555;-70
2022/04/04 03:53:05;;;;;;;15.30;9.90;;;;;;;3.17;49.68;97733.81;5114924;28;20437;-70
2022/04/04 03:55:33;;;;;;;13.07;8.87;;;;;;;3.18;49.63;97725.94;5114135;28;20431;-69
2022/04/04 03:58:00;;;;;;;15.00;10.17;;;;;;;3.03;49.28;97732.03;5115616;27;20800;-68
2022/04/04 04:00:26;;;;;;;13.80;9.07;;;;;;;3.08;50.39;97735.19;5118190;28;20522;-69
2022/04/04 04:02:52;;;;;;;13.97;9.27;;;;;;;3.18;50.36;97731.09;5121250;28;20465;-69
2022/04/04 04:05:17;;;;;;;16.27;9.80;;;;;;;3.26;49.76;97732.41;5126039;27;20433;-68
2022/04/04 04:07:43;;;;;;;12.50;8.83;;;;;;;3.23;49.60;97733.41;5121806;28;20449;-70
2022/04/04 04:10:12;;;;;;;12.47;8.10;;;;;;;3.05;49.45;97735.34;5121274;28;20205;-69
2022/04/04 04:12:42;;;;;;;14.70;8.60;;;;;;;2.90;49.32;97731.94;5121070;28;20263;-69
2022/04/04 04:15:09;;;;;;;11.33;8.63;;;;;;;2.95;50.23;97734.25;5124128;27;20431;-69
2022/04/04 04:17:35;;;;;;;12.20;8.90;;;;;;;2.84;49.88;97732.28;5130146;27;20442;-68
2022/04/04 04:20:19;;;;;;;10.07;7.83;;;;;;;2.90;50.09;97727.56;5121658;27;20425;-69
2022/04/04 04:22:46;;;;;;;11.77;8.33;;;;;;;2.80;49.34;97726.47;5108989;27;20200;-69
2022/04/04 04:25:14;;;;;;;12.57;8.80;;;;;;;2.85;49.90;97724.44;5117861;27;20458;-69
2022/04/04 04:27:41;;;;;;;11.30;7.63;;;;;;;2.87;49.80;97727.78;5121706;27;20443;-69
2022/04/04 04:30:07;;;;;;;12.17;9.10;;;;;;;2.90;50.07;97722.41;5112499;27;20411;-69
2022/04/04 04:32:32;;;;;;;12.10;8.77;;;;;;;2.94;50.12;97717.91;5114637;27;20596;-69
2022/04/04 04:34:58;;;;;;;11.40;8.13;;;;;;;3.01;49.60;97723.53;5121795;27;20174;-69
2022/04/04 04:37:23;;;;;;;12.93;8.57;;;;;;;3.04;49.58;97712.97;5115307;27;20693;-68
2022/04/04 04:39:49;;;;;;;13.70;9.17;;;;;;;3.08;49.88;97717.06;5121367;27;20176;-69
2022/04/04 04:42:14;;;;;;;13.00;8.30;;;;;;;3.06;50.00;97721.47;5112417;28;20201;-68
2022/04/04 04:44:40;;;;;;;11.40;8.53;;;;;;;3.05;49.89;97714.63;5121158;27;20184;-69
2022/04/04 04:47:05;;;;;;;14.03;9.07;;;;;;;3.02;49.74;97714.84;5120433;27;20207;-69
2022/04/04 04:49:32;;;;;;;13.97;9.07;;;;;;;3.02;49.82;97714.84;5113376;27;20185;-69
2022/04/04 04:51:58;;;;;;;11.70;8.63;;;;;;;2.99;50.06;97720.19;5112688;28;20951;-69
2022/04/04 04:54:23;;;;;;;12.17;8.93;;;;;;;3.00;50.07;97720.09;5113287;27;20508;-69
2022/04/04 04:56:48;;;;;;;11.00;8.70;;;;;;;3.00;49.95;97716.69;5125156;27;20439;-69
2022/04/04 04:59:14;;;;;;;11.50;8.63;;;;;;;2.95;49.82;97714.38;5094583;28;20174;-69
2022/04/04 05:01:40;;;;;;;14.50;9.70;;;;;;;2.91;50.09;97720.66;5117538;27;20208;-69
2022/04/04 05:04:06;;;;;;;13.23;9.33;;;;;;;2.91;50.46;97721.47;5113825;27;20184;-69
2022/04/04 05:06:32;;;;;;;12.67;9.07;;;;;;;2.88;50.21;97706.16;5099999;28;20455;-69
2022/04/04 05:09:00;;;;;;;14.00;10.00;;;;;;;2.87;49.88;97712.25;5111790;28;20253;-69
2022/04/04 05:11:27;;;;;;;12.83;9.10;;;;;;;2.87;50.15;97711.41;5093619;28;20423;-69
2022/04/04 05:13:52;;;;;;;14.50;10.33;;;;;;;2.87;50.20;97706.22;5112480;28;20448;-68
2022/04/04 05:16:17;;;;;;;12.90;9.50;;;;;;;2.90;50.56;97706.03;5112118;28;20443;-68
2022/04/04 05:18:44;;;;;;;13.60;8.87;;;;;;;2.87;50.52;97707.06;5111574;28;20181;-70
2022/04/04 05:21:10;;;;;;;12.03;8.97;;;;;;;2.86;50.21;97705.41;5112297;28;20212;-70
2022/04/04 05:23:36;;;;;;;12.00;8.60;;;;;;;2.87;49.84;97709.66;5111809;28;20422;-69
2022/04/04 05:26:01;;;;;;;11.20;8.67;;;;;;;2.91;50.19;97705.13;5112173;28;20197;-69
2022/04/04 05:28:27;;;;;;;11.97;9.17;;;;;;;2.92;50.09;97709.38;5102076;28;20510;-68
2022/04/04 05:30:52;;;;;;;13.67;8.90;;;;;;;2.89;49.95;97715.59;5080126;28;20177;-68
2022/04/04 05:33:18;;;;;;;12.27;9.00;;;;;;;2.93;50.01;97718.81;5090425;28;20654;-70
2022/04/04 05:35:43;;;;;;;11.67;8.33;;;;;;;2.96;49.68;97704.84;5111742;28;20290;-69
2022/04/04 05:38:11;;;;;;;12.87;8.13;;;;;;;2.97;50.11;97707.31;5112067;28;20192;-69
2022/04/04 05:40:36;;;;;;;15.60;8.70;;;;;;;2.99;50.50;97704.66;5093264;28;20212;-71
2022/04/04 05:43:02;;;;;;;11.03;8.77;;;;;;;3.02;50.68;97713.06;5112257;27;20851;-67
2022/04/04 05:45:27;;;;;;;11.80;8.70;;;;;;;3.03;49.82;97712.16;5119548;27;20200;-67
2022/04/04 05:47:53;;;;;;;30.53;19.67;;;;;;;3.05;50.65;97712.03;5095534;28;20182;-68
2022/04/04 05:50:18;;;;;;;30.07;22.10;;;;;;;3.11;51.16;97716.88;5107266;28;20181;-67
2022/04/04 05:52:44;;;;;;;28.90;17.57;;;;;;;3.22;50.84;97714.47;5110741;28;20180;-67
2022/04/04 05:55:10;;;;;;;16.30;10.60;;;;;;;3.21;51.12;97710.19;5119275;27;20208;-68
2022/04/04 05:57:38;;;;;;;16.47;9.53;;;;;;;3.31;50.55;97715.66;5110934;28;20208;-68
2022/04/04 06:00:10;;;;;;;12.83;9.60;;;;;;;3.43;50.56;97706.28;5110633;28;20184;-70
2022/04/04 06:02:37;;;;;;;13.13;9.27;;;;;;;3.58;49.58;97711.44;5111158;28;20466;-68
2022/04/04 06:05:04;;;;;;;14.93;9.23;;;;;;;3.71;49.10;97712.34;5111110;28;20881;-68
2022/04/04 06:07:29;;;;;;;14.10;10.80;;;;;;;3.82;49.24;97715.09;5093212;28;20508;-67
2022/04/04 06:09:54;;;;;;;15.10;12.27;;;;;;;3.93;50.14;97710.97;5111422;28;20419;-69
2022/04/04 06:12:20;;;;;;;15.00;11.50;;;;;;;3.90;49.96;97712.00;5112273;28;20611;-68
2022/04/04 06:14:45;;;;;;;15.23;11.30;;;;;;;4.09;49.70;97711.66;5102199;28;20185;-68
2022/04/04 06:17:11;;;;;;;14.30;10.77;;;;;;;4.22;49.98;97700.47;5112195;28;20562;-68
2022/04/04 06:19:36;;;;;;;16.47;10.47;;;;;;;4.40;48.78;97698.44;5127177;27;20241;-69
2022/04/04 06:22:03;;;;;;;10.03;8.30;;;;;;;4.41;47.11;97706.13;5115905;27;20243;-68
2022/04/04 06:24:28;;;;;;;11.77;8.00;;;;;;;4.52;46.08;97702.81;5114900;27;20364;-67
2022/04/04 06:26:54;;;;;;;9.20;7.80;;;;;;;4.63;45.69;97704.72;5114854;28;20505;-68
2022/04/04 06:29:19;;;;;;;10.60;8.50;;;;;;;4.71;45.78;97702.41;5114542;28;20185;-68
2022/04/04 06:31:46;;;;;;;9.33;7.23;;;;;;;4.82;45.34;97701.69;5115181;28;20331;-68
2022/04/04 06:34:11;;;;;;;11.00;7.80;;;;;;;4.94;45.30;97702.63;5115607;28;20378;-68
2022/04/04 06:36:40;;;;;;;9.23;7.53;;;;;;;5.13;45.65;97709.16;5115124;28;20474;-68
2022/04/04 06:39:06;;;;;;;9.43;8.10;;;;;;;5.35;44.80;97705.91;5114389;28;20200;-68
2022/04/04 06:41:32;;;;;;;11.03;8.07;;;;;;;5.59;45.62;97700.75;5114186;27;20503;-67
2022/04/04 06:43:58;;;;;;;13.60;8.00;;;;;;;5.93;47.81;97700.09;5105553;27;20270;-68
2022/04/04 06:46:25;;;;;;;13.73;8.53;;;;;;;6.23;45.33;97697.06;5111858;28;20243;-68
2022/04/04 06:48:51;;;;;;;10.93;8.10;;;;;;;6.43;45.15;97694.75;5123571;27;20425;-66
2022/04/04 06:51:17;;;;;;;11.00;8.70;;;;;;;6.60;44.35;97694.34;5114924;27;20419;-70
2022/04/04 06:53:42;;;;;;;10.33;8.30;;;;;;;6.67;42.75;97689.50;5115248;27;20193;-68
2022/04/04 06:56:08;;;;;;;10.20;8.00;;;;;;;6.88;43.35;97687.03;5114906;27;20568;-70
2022/04/04 06:58:33;;;;;;;16.40;7.30;;;;;;;6.99;43.11;97682.78;5113998;28;20189;-72
2022/04/04 07:00:59;;;;;;;12.37;8.60;;;;;;;7.14;42.60;97684.22;5114905;27;20201;-69
2022/04/04 07:03:25;;;;;;;12.87;8.10;;;;;;;7.28;42.18;97682.31;5096732;28;20619;-70
2022/04/04 07:05:50;;;;;;;10.93;7.60;;;;;;;7.28;41.05;97671.88;5119407;27;20204;-71
2022/04/04 07:08:16;;;;;;;15.67;7.67;;;;;;;7.18;40.08;97675.19;5118018;27;20180;-71
2022/04/04 07:10:41;;;;;;;10.63;7.30;;;;;;;7.43;41.28;97681.13;5114360;28;20208;-69
2022/04/04 07:13:07;;;;;;;15.83;8.07;;;;;;;7.58;41.12;97673.00;5114947;27;20181;-67
2022/04/04 07:15:33;;;;;;;9.00;6.63;;;;;;;7.79;40.60;97675.69;5113773;27;20222;-69
2022/04/04 07:17:58;;;;;;;13.43;7.20;;;;;;;7.97;39.72;97674.22;5114553;27;20200;-67
2022/04/04 07:20:24;;;;;;;9.53;7.00;;;;;;;8.13;38.28;97673.78;5115262;27;20423;-69
2022/04/04 07:22:50;;;;;;;12.90;6.50;;;;;;;8.25;37.45;97668.50;5106954;27;20198;-69
2022/04/04 07:25:16;;;;;;;6.80;6.10;;;;;;;8.35;36.71;97665.97;5110431;28;20188;-69
2022/04/04 07:27:44;;;;;;;10.23;6.37;;;;;;;8.40;36.42;97664.63;5114132;28;20891;-69
2022/04/04 07:30:13;;;;;;;8.73;5.83;;;;;;;8.48;35.82;97664.03;5113197;28;20450;-68
2022/04/04 07:32:39;;;;;;;6.73;6.07;;;;;;;8.29;35.90;97662.91;5113820;28;20968;-68
2022/04/04 07:35:06;;;;;;;8.90;6.93;;;;;;;7.96;35.70;97662.09;5113929;28;20430;-67
2022/04/04 07:37:31;;;;;;;7.90;6.90;;;;;;;8.26;36.40;97663.16;5113541;27;20258;-68
2022/04/04 07:39:58;;;;;;;12.93;6.67;;;;;;;8.26;35.75;97664.94;5113734;28;20911;-67
2022/04/04 07:42:24;;;;;;;8.37;6.77;;;;;;;8.29;36.28;97668.13;5113744;27;20308;-68
2022/04/04 07:44:49;;;;;;;9.10;6.73;;;;;;;8.48;36.31;97666.66;5113631;27;20421;-69
2022/04/04 07:47:15;;;;;;;8.77;6.67;;;;;;;8.62;35.70;97662.88;5113871;27;20193;-68
2022/04/04 07:49:41;;;;;;;12.33;6.90;;;;;;;8.61;34.58;97663.81;5112654;28;20267;-69
2022/04/04 07:52:06;;;;;;;13.80;6.70;;;;;;;8.84;34.91;97663.66;5113806;28;20759;-68
2022/04/04 07:54:31;;;;;;;8.13;6.40;;;;;;;9.04;34.68;97662.81;5113455;27;20181;-68
2022/04/04 07:56:57;;;;;;;15.40;7.00;;;;;;;9.23;34.72;97650.75;5113537;28;20204;-67
2022/04/04 07:59:23;;;;;;;12.80;7.20;;;;;;;9.41;34.81;97669.25;5112654;28;20318;-69
2022/04/04 08:01:49;;;;;;;9.00;7.07;;;;;;;9.57;34.30;97657.44;5112730;27;20211;-69
2022/04/04 08:04:14;;;;;;;10.77;6.83;;;;;;;9.57;32.36;97657.44;5118030;27;20430;-66
2022/04/04 08:06:40;;;;;;;7.90;6.90;;;;;;;9.71;33.83;97657.06;5117291;27;20901;-67
2022/04/04 08:09:05;;;;;;;9.30;6.93;;;;;;;9.96;33.68;97654.88;5119485;27;20720;-69
2022/04/04 08:11:30;;;;;;;7.60;6.80;;;;;;;9.99;32.82;97652.00;5122076;27;20177;-68
2022/04/04 08:13:56;;;;;;;7.80;6.83;;;;;;;10.19;33.01;97647.59;5110632;27;20234;-68
2022/04/04 08:16:26;;;;;;;13.93;7.97;;;;;;;10.42;32.79;97647.31;5130892;27;20544;-69
2022/04/04 08:18:54;;;;;;;8.50;7.20;;;;;;;10.78;32.17;97644.03;5124606;27;20182;-69
2022/04/04 08:21:20;;;;;;;13.90;7.60;;;;;;;10.92;32.05;97643.56;5124268;27;20450;-69
2022/04/04 08:23:45;;;;;;;7.93;7.00;;;;;;;11.09;31.33;97639.38;5123680;27;20419;-69
2022/04/04 08:26:11;;;;;;;8.40;7.60;;;;;;;10.60;30.12;97635.13;5108654;28;20197;-69
2022/04/04 08:28:37;;;;;;;10.90;7.17;;;;;;;10.81;31.11;97628.88;5112229;28;20177;-68
2022/04/04 08:31:03;;;;;;;9.53;6.77;;;;;;;10.95;31.22;97635.44;5119720;27;20178;-69
2022/04/04 08:33:29;;;;;;;8.30;6.80;;;;;;;11.01;31.13;97628.78;5113994;27;20177;-69
2022/04/04 08:35:55;;;;;;;11.50;7.97;;;;;;;10.77;30.17;97626.69;5126153;27;20464;-69
2022/04/04 08:38:21;;;;;;;8.47;7.67;;;;;;;11.03;31.01;97618.97;5123314;27;20193;-67
2022/04/04 08:40:48;;;;;;;13.57;8.90;;;;;;;10.95;30.75;97621.50;5116275;27;20509;-69
2022/04/04 08:43:16;;;;;;;10.10;6.70;;;;;;;11.21;30.50;97617.22;5116718;27;20180;-68
2022/04/04 08:45:42;;;;;;;15.80;7.50;;;;;;;11.31;30.94;97616.34;5104217;28;20423;-68
2022/04/04 08:48:11;;;;;;;9.03;7.23;;;;;;;11.50;30.08;97618.84;5119497;27;20956;-68
2022/04/04 08:50:39;;;;;;;7.87;7.07;;;;;;;11.57;29.44;97616.47;5123449;27;20417;-68
2022/04/04 08:53:05;;;;;;;8.77;6.57;;;;;;;11.63;29.07;97605.38;5126088;27;20435;-68
2022/04/04 08:55:31;;;;;;;12.13;6.40;;;;;;;11.77;29.54;97611.09;5116808;27;20435;-68
2022/04/04 08:57:56;;;;;;;11.00;7.73;;;;;;;11.89;29.16;97604.63;5111815;28;20415;-69
2022/04/04 09:00:22;;;;;;;8.93;7.37;;;;;;;12.05;28.26;97597.88;5121141;27;20259;-69
2022/04/04 09:02:57;;;;;;;12.30;8.20;;;;;;;11.71;27.29;97603.78;5133010;27;20196;-68
2022/04/04 09:05:23;;;;;;;7.17;6.57;;;;;;;11.40;28.37;97604.97;5107707;27;20733;-68
2022/04/04 09:08:06;;;;;;;7.63;6.77;;;;;;;11.45;27.96;97599.28;5130196;27;20416;-69
2022/04/04 09:10:36;;;;;;;7.70;6.57;;;;;;;11.17;27.51;97592.25;5113619;27;20653;-69
2022/04/04 09:13:27;;;;;;;7.00;6.40;;;;;;;11.28;26.94;97585.97;5124237;27;20419;-68
2022/04/04 09:15:55;;;;;;;8.83;7.13;;;;;;;11.46;27.81;97588.63;5113371;27;20986;-68
2022/04/04 09:18:41;;;;;;;7.60;6.80;;;;;;;11.38;27.58;97580.66;5122788;27;20411;-69
2022/04/04 09:21:09;;;;;;;8.70;7.20;;;;;;;11.14;27.08;97579.44;5112206;28;20525;-68
2022/04/04 09:23:45;;;;;;;7.57;6.87;;;;;;;11.33;26.75;97572.44;5111706;28;20968;-68
2022/04/04 09:26:42;;;;;;;8.50;7.17;;;;;;;11.34;27.44;97574.91;5094247;28;21123;-69
2022/04/04 09:29:08;;;;;;;10.20;7.20;;;;;;;11.62;27.43;97563.50;5106805;28;20498;-68
2022/04/04 09:31:34;;;;;;;7.17;6.50;;;;;;;11.93;27.11;97558.69;5111869;28;20503;-68
2022/04/04 09:34:04;;;;;;;7.87;7.00;;;;;;;11.73;26.38;97558.03;5111450;28;20261;-68
2022/04/04 09:36:30;;;;;;;6.30;5.70;;;;;;;12.13;26.63;97567.25;5129966;27;20450;-69
2022/04/04 09:39:04;;;;;;;11.13;7.10;;;;;;;12.20;27.17;97554.31;5117803;27;20479;-68
2022/04/04 09:41:30;;;;;;;8.27;6.63;;;;;;;12.69;27.00;97553.78;5111512;27;20474;-68
2022/04/04 09:43:58;;;;;;;8.27;6.93;;;;;;;12.36;26.23;97543.06;5117980;27;20757;-68
2022/04/04 09:46:23;;;;;;;7.43;6.63;;;;;;;12.23;26.15;97540.03;5111167;28;20946;-68
2022/04/04 09:49:06;;;;;;;11.00;7.77;;;;;;;11.99;26.53;97536.25;5096262;28;20420;-68
2022/04/04 09:51:42;;;;;;;7.37;6.63;;;;;;;12.35;26.61;97545.88;5110031;28;20173;-68
2022/04/04 09:54:13;;;;;;;8.70;7.80;;;;;;;12.43;27.21;97527.50;5111127;28;20418;-69
2022/04/04 09:56:39;;;;;;;18.20;7.33;;;;;;;12.52;27.38;97525.75;5122597;27;20464;-68
2022/04/04 09:59:05;;;;;;;7.40;6.70;;;;;;;12.65;27.07;97526.13;5123284;27;20925;-68
2022/04/04 10:01:31;;;;;;;8.07;7.23;;;;;;;12.73;27.43;97517.47;5112638;27;20197;-68
2022/04/04 10:03:58;;;;;;;8.70;7.17;;;;;;;13.18;27.75;97510.19;5096014;28;20412;-68
2022/04/04 10:06:28;;;;;;;7.50;6.80;;;;;;;13.17;26.98;97501.47;5073545;28;20443;-68
2022/04/04 10:08:57;;;;;;;7.43;6.73;;;;;;;12.94;27.64;97511.78;5111447;28;20827;-68
2022/04/04 10:11:23;;;;;;;9.33;7.10;;;;;;;13.46;27.48;97502.06;5111067;28;20509;-68
2022/04/04 10:13:49;;;;;;;9.13;7.17;;;;;;;13.05;27.25;97500.97;5099277;28;20419;-69
2022/04/04 10:16:16;;;;;;;8.67;7.77;;;;;;;12.99;27.49;97498.16;5091746;28;20450;-68
2022/04/04 10:18:44;;;;;;;10.20;7.60;;;;;;;12.86;28.91;97490.69;5102617;28;20177;-69
2022/04/04 10:21:11;;;;;;;9.30;8.27;;;;;;;13.39;28.83;97479.94;5111025;28;20887;-66
2022/04/04 10:23:37;;;;;;;8.30;7.50;;;;;;;12.93;27.92;97480.38;5111286;28;20437;-68
2022/04/04 10:26:03;;;;;;;9.13;7.83;;;;;;;12.82;28.30;97481.50;5094694;28;20454;-70
2022/04/04 10:28:37;;;;;;;13.90;7.90;;;;;;;12.71;28.94;97474.72;5108769;28;20415;-68
2022/04/04 10:31:18;;;;;;;8.87;7.73;;;;;;;12.09;28.01;97473.13;5110695;28;20176;-68
2022/04/04 10:33:47;;;;;;;9.73;7.77;;;;;;;12.74;28.48;97472.59;5103689;28;20426;-69
2022/04/04 10:36:20;;;;;;;8.83;7.60;;;;;;;13.28;27.57;97452.97;5110919;28;20533;-68
2022/04/04 10:38:50;;;;;;;7.47;6.77;;;;;;;13.70;28.17;97455.63;5103181;28;20427;-68
2022/04/04 10:41:21;;;;;;;8.43;6.93;;;;;;;14.05;27.33;97443.06;5111226;28;20481;-67
2022/04/04 10:43:48;;;;;;;8.63;6.50;;;;;;;13.84;26.42;97433.91;5110480;27;20472;-68
2022/04/04 10:46:22;;;;;;;7.00;6.30;;;;;;;13.75;26.86;97430.44;5111281;28;20839;-68
2022/04/04 10:48:54;;;;;;;8.97;6.63;;;;;;;14.39;26.94;97426.97;5102998;28;20509;-68
2022/04/04 10:51:25;;;;;;;9.80;6.23;;;;;;;14.72;25.40;97431.31;5110793;28;20415;-68
2022/04/04 10:53:56;;;;;;;7.07;6.37;;;;;;;14.80;25.27;97425.16;5111093;28;20427;-68
2022/04/04 10:56:26;;;;;;;6.20;5.57;;;;;;;14.98;24.07;97422.25;5110670;28;20434;-69
2022/04/04 10:58:53;;;;;;;7.90;6.33;;;;;;;14.98;23.88;97422.25;5112072;28;20419;-68
2022/04/04 11:01:21;;;;;;;7.50;6.50;;;;;;;15.23;24.80;97420.25;5123532;27;20450;-67
2022/04/04 11:03:52;;;;;;;6.57;5.97;;;;;;;15.28;24.06;97411.78;5130601;27;20502;-68
2022/04/04 11:09:22;;;;;;;6.93;5.90;;;;;;;15.04;23.82;97408.34;5114406;28;20429;-68
2022/04/04 11:11:57;;;;;;;6.40;5.40;;;;;;;15.29;24.88;97405.53;5107935;27;20417;-69
2022/04/04 11:14:28;;;;;;;6.03;5.43;;;;;;;15.52;24.35;97398.38;5114637;28;20835;-69
2022/04/04 11:17:06;;;;;;;6.53;5.67;;;;;;;15.50;24.61;97389.00;5114581;28;20494;-68
2022/04/04 11:19:46;;;;;;;5.47;5.07;;;;;;;15.69;25.76;97386.88;5113806;28;20427;-69
2022/04/04 11:22:22;;;;;;;5.87;5.27;;;;;;;16.02;25.24;97386.53;5114110;27;20457;-69
2022/04/04 11:24:53;;;;;;;5.13;4.60;;;;;;;16.25;24.36;97374.03;5106127;28;20467;-69
2022/04/04 11:27:25;;;;;;;9.00;5.33;;;;;;;16.52;24.39;97373.50;5113912;28;20446;-68
2022/04/04 11:29:51;;;;;;;6.13;5.50;;;;;;;16.55;24.01;97366.03;5113929;28;20963;-67
2022/04/04 11:32:34;;;;;;;5.90;5.40;;;;;;;15.85;23.38;97367.41;5122349;27;20415;-68
2022/04/04 11:35:23;;;;;;;5.93;5.40;;;;;;;16.02;24.41;97360.91;5114159;28;20545;-68
2022/04/04 11:37:50;;;;;;;5.77;5.27;;;;;;;16.21;23.95;97364.81;5106679;28;20459;-68